100LL.CA
Aviation Fuel Pricing for Canadians
Please upgrade your browser - Tested with IE9, FireFox, Chrome, Safari

Fuel Airports Other Help
Prices Economy Info List METAR/TAF Kneeboard Help

Enter a list of
Airport Idents:
Sort Method: As Entered    By Ident   

CYVR
METAR CYVR 241100Z 00000KT 20SM BKN035 09/08 A3022 RMK SC6 SLP235
TAF CYVR 240838Z 2409/2512 VRB03KT P6SM FEW050 SCT240 FM241200 09006KT P6SM SCT015 BKN030 TEMPO 2412/2418 BKN015 FM241800 28010KT P6SM SCT030 RMK NXT FCST BY 241200Z
CYXX
METAR CYXX 241100Z 04003KT 15SM BKN042 BKN100 11/10 A3022 RMK SC5AC2 SLP237
TAF CYXX 240538Z 2406/2506 VRB03KT P6SM SCT040 BKN080 TEMPO 2406/2410 BKN040 FM241000 VRB03KT P6SM SCT030 PROB30 2410/2416 3/4SM BR FM242000 24007KT P6SM FEW030 RMK NXT FCST BY 241200Z
KBLI
METAR KBLI 241105Z AUTO 00000KT 9SM CLR 08/06 A3022 RMK AO2 T00780061 $
TAF KBLI 240520Z 2406/2506 00000KT P6SM BKN050 FM242000 26005KT P6SM FEW060


Please Send Updates!

Desktop Version ]  [ Mobile Version ]  [ Disclaimer ]